Huntsville (HSV/KHSV)

Map

Destinations

Information

Location
Huntsville, AL
Local Time
20:51 / 8:51 pm
GMT Time
01:51 / 1:51 am
Gates
Unassigned
No FAA reported delays
METAR KHSV 270053Z 00000KT 10SM BKN250 24/17 A3008 RMK AO2 SLP179 T02440172 PNO $
TAF KHSV 262335Z 2700/2724 30005KT P6SM FEW060 SCT150 FM270300 VRB03KT P6SM SCT050 BKN150 FM271200 02006KT P6SM BKN040 OVC150 FM271800 03008KT P6SM FEW050 SCT250